sensor_id;sensor_type;location;lat;lon;timestamp;pressure;altitude;pressure_sealevel;temperature;humidity
61119;BME280;51448;51.660;5.824;2024-02-15T00:00:54;101606.94;;;12.63;100.00
61119;BME280;51448;51.660;5.824;2024-02-15T00:03:21;101611.66;;;12.63;100.00
61119;BME280;51448;51.660;5.824;2024-02-15T00:05:49;101612.00;;;12.61;100.00
61119;BME280;51448;51.660;5.824;2024-02-15T00:08:17;101606.47;;;12.61;100.00
61119;BME280;51448;51.660;5.824;2024-02-15T00:10:45;101605.59;;;12.61;100.00
61119;BME280;51448;51.660;5.824;2024-02-15T00:13:14;101611.16;;;12.61;100.00
61119;BME280;51448;51.660;5.824;2024-02-15T00:15:42;101598.44;;;12.60;100.00
61119;BME280;51448;51.660;5.824;2024-02-15T00:18:09;101594.84;;;12.59;100.00
61119;BME280;51448;51.660;5.824;2024-02-15T00:20:37;101601.53;;;12.58;100.00
61119;BME280;51448;51.660;5.824;2024-02-15T00:23:06;101598.75;;;12.58;100.00
61119;BME280;51448;51.660;5.824;2024-02-15T00:25:34;101598.75;;;12.58;100.00
61119;BME280;51448;51.660;5.824;2024-02-15T00:28:03;101595.69;;;12.60;100.00
61119;BME280;51448;51.660;5.824;2024-02-15T00:30:31;101595.50;;;12.56;100.00
61119;BME280;51448;51.660;5.824;2024-02-15T00:32:58;101593.84;;;12.55;100.00
61119;BME280;51448;51.660;5.824;2024-02-15T00:35:27;101589.78;;;12.53;100.00
61119;BME280;51448;51.660;5.824;2024-02-15T00:37:55;101587.81;;;12.53;100.00
61119;BME280;51448;51.660;5.824;2024-02-15T00:40:22;101592.03;;;12.51;100.00
61119;BME280;51448;51.660;5.824;2024-02-15T00:42:50;101588.75;;;12.49;100.00
61119;BME280;51448;51.660;5.824;2024-02-15T00:45:17;101586.78;;;12.49;100.00
61119;BME280;51448;51.660;5.824;2024-02-15T00:47:45;101588.25;;;12.47;100.00
61119;BME280;51448;51.660;5.824;2024-02-15T00:50:13;101591.03;;;12.47;100.00
61119;BME280;51448;51.660;5.824;2024-02-15T00:52:40;101594.59;;;12.47;100.00
61119;BME280;51448;51.660;5.824;2024-02-15T00:55:08;101597.38;;;12.47;100.00
61119;BME280;51448;51.660;5.824;2024-02-15T00:57:36;101598.19;;;12.48;100.00
61119;BME280;51448;51.660;5.824;2024-02-15T01:00:05;101596.56;;;12.47;100.00
61119;BME280;51448;51.660;5.824;2024-02-15T01:02:33;101598.50;;;12.46;100.00
61119;BME280;51448;51.660;5.824;2024-02-15T01:05:01;101596.88;;;12.45;100.00
61119;BME280;51448;51.660;5.824;2024-02-15T01:07:28;101605.19;;;12.45;100.00
61119;BME280;51448;51.660;5.824;2024-02-15T01:09:56;101600.47;;;12.46;100.00
61119;BME280;51448;51.660;5.824;2024-02-15T01:12:24;101594.59;;;12.47;100.00
61119;BME280;51448;51.660;5.824;2024-02-15T01:14:51;101590.38;;;12.50;100.00
61119;BME280;51448;51.660;5.824;2024-02-15T01:17:19;101593.47;;;12.48;100.00
61119;BME280;51448;51.660;5.824;2024-02-15T01:19:47;101593.47;;;12.48;100.00
61119;BME280;51448;51.660;5.824;2024-02-15T01:22:14;101587.94;;;12.48;100.00
61119;BME280;51448;51.660;5.824;2024-02-15T01:24:42;101590.22;;;12.46;100.00
61119;BME280;51448;51.660;5.824;2024-02-15T01:27:09;101589.41;;;12.46;100.00
61119;BME280;51448;51.660;5.824;2024-02-15T01:29:37;101588.25;;;12.47;100.00
61119;BME280;51448;51.660;5.824;2024-02-15T01:32:05;101584.69;;;12.46;100.00
61119;BME280;51448;51.660;5.824;2024-02-15T01:34:32;101584.69;;;12.46;100.00
61119;BME280;51448;51.660;5.824;2024-02-15T01:37:00;101579.13;;;12.46;100.00
61119;BME280;51448;51.660;5.824;2024-02-15T01:39:28;101579.97;;;12.47;100.00
61119;BME280;51448;51.660;5.824;2024-02-15T01:41:55;101579.13;;;12.46;100.00
61119;BME280;51448;51.660;5.824;2024-02-15T01:44:23;101570.31;;;12.44;100.00
61119;BME280;51448;51.660;5.824;2024-02-15T01:46:52;101573.91;;;12.45;100.00
61119;BME280;51448;51.660;5.824;2024-02-15T01:49:21;101565.91;;;12.43;100.00
61119;BME280;51448;51.660;5.824;2024-02-15T01:51:51;101567.53;;;12.44;100.00
61119;BME280;51448;51.660;5.824;2024-02-15T01:54:22;101567.53;;;12.44;100.00
61119;BME280;51448;51.660;5.824;2024-02-15T01:56:52;101568.69;;;12.43;100.00
61119;BME280;51448;51.660;5.824;2024-02-15T01:59:22;101574.22;;;12.43;100.00
61119;BME280;51448;51.660;5.824;2024-02-15T02:01:50;101565.09;;;12.43;100.00
61119;BME280;51448;51.660;5.824;2024-02-15T02:04:19;101565.41;;;12.41;100.00
61119;BME280;51448;51.660;5.824;2024-02-15T02:06:46;101557.94;;;12.42;100.00
61119;BME280;51448;51.660;5.824;2024-02-15T02:09:14;101551.59;;;12.41;100.00
61119;BME280;51448;51.660;5.824;2024-02-15T02:11:46;101558.25;;;12.40;100.00
61119;BME280;51448;51.660;5.824;2024-02-15T02:14:15;101545.53;;;12.39;100.00
61119;BME280;51448;51.660;5.824;2024-02-15T02:16:43;101540.63;;;12.36;100.00
61119;BME280;51448;51.660;5.824;2024-02-15T02:19:13;101537.06;;;12.35;100.00
61119;BME280;51448;51.660;5.824;2024-02-15T02:21:41;101548.13;;;12.35;100.00
61119;BME280;51448;51.660;5.824;2024-02-15T02:24:13;101541.25;;;12.33;100.00
61119;BME280;51448;51.660;5.824;2024-02-15T02:26:45;101539.63;;;12.32;100.00
61119;BME280;51448;51.660;5.824;2024-02-15T02:29:15;101543.19;;;12.32;100.00
61119;BME280;51448;51.660;5.824;2024-02-15T02:31:43;101542.38;;;12.32;100.00
61119;BME280;51448;51.660;5.824;2024-02-15T02:34:10;101527.41;;;12.33;100.00
61119;BME280;51448;51.660;5.824;2024-02-15T02:36:44;101523.81;;;12.32;100.00
61119;BME280;51448;51.660;5.824;2024-02-15T02:39:11;101528.56;;;12.32;100.00
61119;BME280;51448;51.660;5.824;2024-02-15T02:41:39;101519.75;;;12.30;100.00
61119;BME280;51448;51.660;5.824;2024-02-15T02:44:06;101517.28;;;12.28;100.00
61119;BME280;51448;51.660;5.824;2024-02-15T02:46:34;101520.91;;;12.29;100.00
61119;BME280;51448;51.660;5.824;2024-02-15T02:49:01;101526.91;;;12.31;100.00
61119;BME280;51448;51.660;5.824;2024-02-15T02:51:29;101525.28;;;12.30;100.00
61119;BME280;51448;51.660;5.824;2024-02-15T02:53:57;101522.53;;;12.30;100.00
61119;BME280;51448;51.660;5.824;2024-02-15T02:56:24;101523.66;;;12.29;100.00
61119;BME280;51448;51.660;5.824;2024-02-15T02:58:52;101523.34;;;12.30;100.00
61119;BME280;51448;51.660;5.824;2024-02-15T03:01:22;101517.00;;;12.30;100.00
61119;BME280;51448;51.660;5.824;2024-02-15T03:03:53;101514.22;;;12.30;100.00
61119;BME280;51448;51.660;5.824;2024-02-15T03:06:23;101522.19;;;12.31;100.00
61119;BME280;51448;51.660;5.824;2024-02-15T03:08:52;101523.50;;;12.34;100.00
61119;BME280;51448;51.660;5.824;2024-02-15T03:11:22;101522.69;;;12.33;100.00
61119;BME280;51448;51.660;5.824;2024-02-15T03:13:50;101512.75;;;12.32;100.00
61119;BME280;51448;51.660;5.824;2024-02-15T03:16:21;101509.66;;;12.34;100.00
61119;BME280;51448;51.660;5.824;2024-02-15T03:18:52;101501.69;;;12.32;100.00
61119;BME280;51448;51.660;5.824;2024-02-15T03:21:20;101508.38;;;12.31;100.00
61119;BME280;51448;51.660;5.824;2024-02-15T03:23:47;101507.53;;;12.31;100.00
61119;BME280;51448;51.660;5.824;2024-02-15T03:26:15;101510.63;;;12.29;100.00
61119;BME280;51448;51.660;5.824;2024-02-15T03:28:42;101510.94;;;12.28;100.00
61119;BME280;51448;51.660;5.824;2024-02-15T03:31:11;101510.13;;;12.27;100.00
61119;BME280;51448;51.660;5.824;2024-02-15T03:33:40;101510.94;;;12.28;100.00
61119;BME280;51448;51.660;5.824;2024-02-15T03:36:08;101510.94;;;12.28;100.00
61119;BME280;51448;51.660;5.824;2024-02-15T03:38:37;101509.81;;;12.29;100.00
61119;BME280;51448;51.660;5.824;2024-02-15T03:41:05;101504.59;;;12.27;100.00
61119;BME280;51448;51.660;5.824;2024-02-15T03:43:32;101503.44;;;12.28;100.00
61119;BME280;51448;51.660;5.824;2024-02-15T03:46:01;101501.00;;;12.27;100.00
61119;BME280;51448;51.660;5.824;2024-02-15T03:48:28;101491.88;;;12.26;100.00
61119;BME280;51448;51.660;5.824;2024-02-15T03:50:56;101501.81;;;12.27;100.00
61119;BME280;51448;51.660;5.824;2024-02-15T03:53:25;101502.34;;;12.29;100.00
61119;BME280;51448;51.660;5.824;2024-02-15T03:55:53;101502.34;;;12.29;100.00
61119;BME280;51448;51.660;5.824;2024-02-15T03:58:20;101509.81;;;12.29;100.00
61119;BME280;51448;51.660;5.824;2024-02-15T04:00:48;101507.88;;;12.29;100.00
61119;BME280;51448;51.660;5.824;2024-02-15T04:03:16;101514.72;;;12.32;100.00
61119;BME280;51448;51.660;5.824;2024-02-15T04:05:43;101513.56;;;12.33;100.00
61119;BME280;51448;51.660;5.824;2024-02-15T04:08:11;101512.44;;;12.34;100.00
61119;BME280;51448;51.660;5.824;2024-02-15T04:10:39;101503.31;;;12.33;100.00
61119;BME280;51448;51.660;5.824;2024-02-15T04:13:06;101499.13;;;12.36;100.00
61119;BME280;51448;51.660;5.824;2024-02-15T04:15:34;101508.25;;;12.36;100.00
61119;BME280;51448;51.660;5.824;2024-02-15T04:18:02;101504.00;;;12.39;100.00
61119;BME280;51448;51.660;5.824;2024-02-15T04:20:30;101502.91;;;12.40;100.00
61119;BME280;51448;51.660;5.824;2024-02-15T04:22:57;101503.50;;;12.37;100.00
61119;BME280;51448;51.660;5.824;2024-02-15T04:25:27;101496.34;;;12.36;100.00
61119;BME280;51448;51.660;5.824;2024-02-15T04:27:58;101497.97;;;12.37;100.00
61119;BME280;51448;51.660;5.824;2024-02-15T04:30:30;101506.59;;;12.35;100.00
61119;BME280;51448;51.660;5.824;2024-02-15T04:32:58;101497.97;;;12.37;100.00
61119;BME280;51448;51.660;5.824;2024-02-15T04:35:25;101502.38;;;12.38;100.00
61119;BME280;51448;51.660;5.824;2024-02-15T04:37:55;101499.31;;;12.40;100.00
61119;BME280;51448;51.660;5.824;2024-02-15T04:40:22;101499.00;;;12.41;100.00
61119;BME280;51448;51.660;5.824;2024-02-15T04:42:50;101494.28;;;12.42;100.00
61119;BME280;51448;51.660;5.824;2024-02-15T04:45:17;101492.31;;;12.42;100.00
61119;BME280;51448;51.660;5.824;2024-02-15T04:47:46;101495.09;;;12.42;100.00
61119;BME280;51448;51.660;5.824;2024-02-15T04:50:17;101494.59;;;12.40;100.00
61119;BME280;51448;51.660;5.824;2024-02-15T04:52:46;101488.72;;;12.42;100.00
61119;BME280;51448;51.660;5.824;2024-02-15T04:55:17;101490.38;;;12.43;100.00
61119;BME280;51448;51.660;5.824;2024-02-15T04:57:45;101485.63;;;12.43;100.00
61119;BME280;51448;51.660;5.824;2024-02-15T05:00:16;101476.53;;;12.43;100.00
61119;BME280;51448;51.660;5.824;2024-02-15T05:02:48;101476.03;;;12.41;100.00
61119;BME280;51448;51.660;5.824;2024-02-15T05:05:16;101476.84;;;12.41;100.00
61119;BME280;51448;51.660;5.824;2024-02-15T05:07:44;101472.13;;;12.42;100.00
61119;BME280;51448;51.660;5.824;2024-02-15T05:10:12;101474.56;;;12.43;100.00
61119;BME280;51448;51.660;5.824;2024-02-15T05:12:40;101466.59;;;12.42;100.00
61119;BME280;51448;51.660;5.824;2024-02-15T05:15:09;101470.50;;;12.41;100.00
61119;BME280;51448;51.660;5.824;2024-02-15T05:17:40;101479.09;;;12.39;100.00
61119;BME280;51448;51.660;5.824;2024-02-15T05:20:10;101483.00;;;12.38;100.00
61119;BME280;51448;51.660;5.824;2024-02-15T05:22:40;101484.63;;;12.39;100.00
61119;BME280;51448;51.660;5.824;2024-02-15T05:25:18;101478.81;;;12.41;100.00
61119;BME280;51448;51.660;5.824;2024-02-15T05:27:54;101480.75;;;12.40;100.00
61119;BME280;51448;51.660;5.824;2024-02-15T05:30:24;101480.75;;;12.40;100.00
61119;BME280;51448;51.660;5.824;2024-02-15T05:32:52;101482.06;;;12.43;100.00
61119;BME280;51448;51.660;5.824;2024-02-15T05:35:23;101485.16;;;12.41;100.00
61119;BME280;51448;51.660;5.824;2024-02-15T05:37:52;101487.41;;;12.39;100.00
61119;BME280;51448;51.660;5.824;2024-02-15T05:40:20;101476.66;;;12.37;100.00
61119;BME280;51448;51.660;5.824;2024-02-15T05:42:48;101487.41;;;12.39;100.00
61119;BME280;51448;51.660;5.824;2024-02-15T05:47:52;101479.63;;;12.41;100.00
61119;BME280;51448;51.660;5.824;2024-02-15T05:50:21;101485.16;;;12.41;100.00
61119;BME280;51448;51.660;5.824;2024-02-15T05:52:50;101483.19;;;12.42;100.00
61119;BME280;51448;51.660;5.824;2024-02-15T05:55:20;101474.91;;;12.42;100.00
61119;BME280;51448;51.660;5.824;2024-02-15T05:57:48;101478.81;;;12.41;100.00
61119;BME280;51448;51.660;5.824;2024-02-15T06:00:16;101479.09;;;12.39;100.00
61119;BME280;51448;51.660;5.824;2024-02-15T06:02:49;101479.09;;;12.39;100.00
61119;BME280;51448;51.660;5.824;2024-02-15T06:05:18;101479.63;;;12.41;100.00
61119;BME280;51448;51.660;5.824;2024-02-15T06:07:47;101472.47;;;12.40;100.00
61119;BME280;51448;51.660;5.824;2024-02-15T06:10:15;101467.22;;;12.38;100.00
61119;BME280;51448;51.660;5.824;2024-02-15T06:12:43;101453.38;;;12.38;100.00
61119;BME280;51448;51.660;5.824;2024-02-15T06:15:11;101450.94;;;12.37;100.00
61119;BME280;51448;51.660;5.824;2024-02-15T06:17:46;101434.66;;;12.35;100.00
61119;BME280;51448;51.660;5.824;2024-02-15T06:20:15;101433.31;;;12.33;100.00
61119;BME280;51448;51.660;5.824;2024-02-15T06:22:47;101426.97;;;12.32;100.00
61119;BME280;51448;51.660;5.824;2024-02-15T06:25:15;101412.31;;;12.32;100.00
61119;BME280;51448;51.660;5.824;2024-02-15T06:27:48;101386.91;;;12.30;100.00
61119;BME280;51448;51.660;5.824;2024-02-15T06:30:18;101378.91;;;12.28;100.00
61119;BME280;51448;51.660;5.824;2024-02-15T06:33:04;101361.34;;;12.24;100.00
61119;BME280;51448;51.660;5.824;2024-02-15T06:35:51;101358.72;;;12.19;100.00
61119;BME280;51448;51.660;5.824;2024-02-15T06:38:38;101364.03;;;12.16;100.00
61119;BME280;51448;51.660;5.824;2024-02-15T06:41:24;101371.84;;;12.14;100.00
61119;BME280;51448;51.660;5.824;2024-02-15T06:43:53;101398.88;;;12.17;100.00
61119;BME280;51448;51.660;5.824;2024-02-15T06:46:21;101404.94;;;12.19;100.00
61119;BME280;51448;51.660;5.824;2024-02-15T06:48:48;101409.00;;;12.21;100.00
61119;BME280;51448;51.660;5.824;2024-02-15T06:51:17;101423.66;;;12.22;100.00
61119;BME280;51448;51.660;5.824;2024-02-15T06:53:44;101426.75;;;12.20;100.00
61119;BME280;51448;51.660;5.824;2024-02-15T06:56:12;101435.84;;;12.21;100.00
61119;BME280;51448;51.660;5.824;2024-02-15T06:58:41;101433.09;;;12.21;100.00
61119;BME280;51448;51.660;5.824;2024-02-15T07:01:09;101447.41;;;12.23;100.00
61119;BME280;51448;51.660;5.824;2024-02-15T07:03:36;101447.41;;;12.23;100.00
61119;BME280;51448;51.660;5.824;2024-02-15T07:06:05;101444.66;;;12.23;100.00
61119;BME280;51448;51.660;5.824;2024-02-15T07:08:33;101439.09;;;12.23;100.00
61119;BME280;51448;51.660;5.824;2024-02-15T07:11:01;101442.72;;;12.23;100.00
61119;BME280;51448;51.660;5.824;2024-02-15T07:13:31;101453.47;;;12.25;100.00
61119;BME280;51448;51.660;5.824;2024-02-15T07:15:59;101457.88;;;12.26;100.00
61119;BME280;51448;51.660;5.824;2024-02-15T07:18:27;101460.63;;;12.26;100.00
61119;BME280;51448;51.660;5.824;2024-02-15T07:20:56;101468.94;;;12.26;100.00
61119;BME280;51448;51.660;5.824;2024-02-15T07:23:28;101467.78;;;12.27;100.00
61119;BME280;51448;51.660;5.824;2024-02-15T07:25:56;101465.84;;;12.27;100.00
61119;BME280;51448;51.660;5.824;2024-02-15T07:28:23;101450.06;;;12.28;100.00
61119;BME280;51448;51.660;5.824;2024-02-15T07:30:54;101425.66;;;12.30;100.00
61119;BME280;51448;51.660;5.824;2024-02-15T07:33:22;101416.84;;;12.28;100.00
61119;BME280;51448;51.660;5.824;2024-02-15T07:35:51;101420.59;;;12.23;100.00
61119;BME280;51448;51.660;5.824;2024-02-15T07:38:20;101416.97;;;12.23;100.00
61119;BME280;51448;51.660;5.824;2024-02-15T07:40:50;101416.16;;;12.22;100.00
61119;BME280;51448;51.660;5.824;2024-02-15T07:43:18;101418.44;;;12.20;100.00
61119;BME280;51448;51.660;5.824;2024-02-15T07:45:45;101421.81;;;12.17;100.00
61119;BME280;51448;51.660;5.824;2024-02-15T07:48:16;101426.53;;;12.17;100.00
61119;BME280;51448;51.660;5.824;2024-02-15T07:50:44;101424.91;;;12.16;100.00
61119;BME280;51448;51.660;5.824;2024-02-15T07:53:12;101429.00;;;12.18;100.00
61119;BME280;51448;51.660;5.824;2024-02-15T07:55:41;101427.88;;;12.19;100.00
61119;BME280;51448;51.660;5.824;2024-02-15T07:58:20;101420.38;;;12.20;100.00
61119;BME280;51448;51.660;5.824;2024-02-15T08:01:03;101430.66;;;12.19;100.00
61119;BME280;51448;51.660;5.824;2024-02-15T08:03:32;101431.47;;;12.20;100.00
61119;BME280;51448;51.660;5.824;2024-02-15T08:06:02;101426.41;;;12.22;100.00
61119;BME280;51448;51.660;5.824;2024-02-15T08:08:34;101428.03;;;12.23;100.00
61119;BME280;51448;51.660;5.824;2024-02-15T08:11:04;101426.94;;;12.24;100.00
61119;BME280;51448;51.660;5.824;2024-02-15T08:13:32;101431.66;;;12.23;100.00
61119;BME280;51448;51.660;5.824;2024-02-15T08:15:59;101424.16;;;12.24;100.00
61119;BME280;51448;51.660;5.824;2024-02-15T08:18:27;101424.66;;;12.26;100.00
61119;BME280;51448;51.660;5.824;2024-02-15T08:20:54;101421.56;;;12.27;100.00
61119;BME280;51448;51.660;5.824;2024-02-15T08:23:23;101428.72;;;12.28;100.00
61119;BME280;51448;51.660;5.824;2024-02-15T08:25:51;101421.28;;;12.29;100.00
61119;BME280;51448;51.660;5.824;2024-02-15T08:28:19;101417.03;;;12.31;100.00
61119;BME280;51448;51.660;5.824;2024-02-15T08:30:52;101412.97;;;12.29;100.00
61119;BME280;51448;51.660;5.824;2024-02-15T08:33:20;101408.53;;;12.28;100.00
61119;BME280;51448;51.660;5.824;2024-02-15T08:35:47;101412.97;;;12.29;100.00
61119;BME280;51448;51.660;5.824;2024-02-15T08:38:18;101412.66;;;12.30;100.00
61119;BME280;51448;51.660;5.824;2024-02-15T08:40:46;101419.47;;;12.33;100.00
61119;BME280;51448;51.660;5.824;2024-02-15T08:43:15;101407.78;;;12.36;100.00
61119;BME280;51448;51.660;5.824;2024-02-15T08:45:43;101403.88;;;12.37;100.00
61119;BME280;51448;51.660;5.824;2024-02-15T08:48:11;101402.94;;;12.42;100.00
61119;BME280;51448;51.660;5.824;2024-02-15T08:50:39;101415.81;;;12.46;100.00
61119;BME280;51448;51.660;5.824;2024-02-15T08:53:08;101415.97;;;12.50;100.00
61119;BME280;51448;51.660;5.824;2024-02-15T08:55:36;101411.78;;;12.52;100.00
61119;BME280;51448;51.660;5.824;2024-02-15T08:58:04;101412.25;;;12.54;100.00
61119;BME280;51448;51.660;5.824;2024-02-15T09:00:31;101408.06;;;12.57;100.00
61119;BME280;51448;51.660;5.824;2024-02-15T09:02:59;101401.88;;;12.60;100.00
61119;BME280;51448;51.660;5.824;2024-02-15T09:05:27;101408.22;;;12.60;100.00
61119;BME280;51448;51.660;5.824;2024-02-15T09:07:55;101405.97;;;12.62;100.00
61119;BME280;51448;51.660;5.824;2024-02-15T09:10:22;101403.69;;;12.64;100.00
61119;BME280;51448;51.660;5.824;2024-02-15T09:12:50;101400.28;;;12.68;100.00
61119;BME280;51448;51.660;5.824;2024-02-15T09:15:18;101403.06;;;12.68;100.00
61119;BME280;51448;51.660;5.824;2024-02-15T09:17:46;101405.50;;;12.69;100.00
61119;BME280;51448;51.660;5.824;2024-02-15T09:20:16;101406.50;;;12.73;100.00
61119;BME280;51448;51.660;5.824;2024-02-15T09:22:51;101406.97;;;12.75;100.00
61119;BME280;51448;51.660;5.824;2024-02-15T09:25:20;101405.69;;;12.73;100.00
61119;BME280;51448;51.660;5.824;2024-02-15T09:27:51;101408.94;;;12.75;100.00
61119;BME280;51448;51.660;5.824;2024-02-15T09:30:19;101405.03;;;12.76;100.00
61119;BME280;51448;51.660;5.824;2024-02-15T09:32:46;101400.81;;;12.78;100.00
61119;BME280;51448;51.660;5.824;2024-02-15T09:35:14;101400.97;;;12.82;100.00
61119;BME280;51448;51.660;5.824;2024-02-15T09:37:44;101403.44;;;12.83;100.00
61119;BME280;51448;51.660;5.824;2024-02-15T09:40:13;101406.69;;;12.85;100.00
61119;BME280;51448;51.660;5.824;2024-02-15T09:42:44;101404.09;;;12.89;100.00
61119;BME280;51448;51.660;5.824;2024-02-15T09:45:14;101414.53;;;12.92;100.00
61119;BME280;51448;51.660;5.824;2024-02-15T09:47:43;101401.19;;;12.94;100.00
61119;BME280;51448;51.660;5.824;2024-02-15T09:50:16;101402.16;;;12.98;100.00
61119;BME280;51448;51.660;5.824;2024-02-15T09:55:14;101399.38;;;12.98;100.00
61119;BME280;51448;51.660;5.824;2024-02-15T09:57:43;101406.25;;;13.01;100.00
61119;BME280;51448;51.660;5.824;2024-02-15T10:00:13;101410.03;;;13.05;100.00
61119;BME280;51448;51.660;5.824;2024-02-15T10:02:43;101420.44;;;13.08;100.00
61119;BME280;51448;51.660;5.824;2024-02-15T10:05:12;101405.97;;;13.11;100.00
61119;BME280;51448;51.660;5.824;2024-02-15T10:07:41;101408.06;;;13.14;100.00
61119;BME280;51448;51.660;5.824;2024-02-15T10:12:49;101407.44;;;13.17;100.00
61119;BME280;51448;51.660;5.824;2024-02-15T10:15:37;101402.03;;;13.21;100.00
61119;BME280;51448;51.660;5.824;2024-02-15T10:18:08;101399.28;;;13.21;100.00
61119;BME280;51448;51.660;5.824;2024-02-15T10:20:40;101404.53;;;13.22;100.00
61119;BME280;51448;51.660;5.824;2024-02-15T10:23:13;101399.47;;;13.24;100.00
61119;BME280;51448;51.660;5.824;2024-02-15T10:25:46;101397.53;;;13.25;100.00
61119;BME280;51448;51.660;5.824;2024-02-15T10:28:20;101399.66;;;13.28;100.00
61119;BME280;51448;51.660;5.824;2024-02-15T10:30:51;101398.19;;;13.30;100.00
61119;BME280;51448;51.660;5.824;2024-02-15T10:33:27;101408.31;;;13.35;100.00
61119;BME280;51448;51.660;5.824;2024-02-15T10:36:07;101404.09;;;13.37;100.00
61119;BME280;51448;51.660;5.824;2024-02-15T10:38:37;101403.41;;;13.40;100.00
61119;BME280;51448;51.660;5.824;2024-02-15T10:41:08;101401.63;;;13.45;100.00
61119;BME280;51448;51.660;5.824;2024-02-15T10:43:36;101406.22;;;13.49;100.00
61119;BME280;51448;51.660;5.824;2024-02-15T10:46:08;101401.78;;;13.48;100.00
61119;BME280;51448;51.660;5.824;2024-02-15T10:48:38;101399.19;;;13.52;100.00
61119;BME280;51448;51.660;5.824;2024-02-15T10:51:09;101386.78;;;13.58;100.00
61119;BME280;51448;51.660;5.824;2024-02-15T10:53:47;101387.44;;;13.63;100.00
61119;BME280;51448;51.660;5.824;2024-02-15T10:56:27;101391.66;;;13.69;100.00
61119;BME280;51448;51.660;5.824;2024-02-15T10:59:17;101396.25;;;13.74;100.00
61119;BME280;51448;51.660;5.824;2024-02-15T11:01:54;101389.53;;;13.75;100.00
61119;BME280;51448;51.660;5.824;2024-02-15T11:04:30;101390.88;;;13.78;100.00
61119;BME280;51448;51.660;5.824;2024-02-15T11:07:03;101390.19;;;13.81;100.00
61119;BME280;51448;51.660;5.824;2024-02-15T11:09:34;101387.94;;;13.83;100.00
61119;BME280;51448;51.660;5.824;2024-02-15T11:12:05;101382.53;;;13.86;100.00
61119;BME280;51448;51.660;5.824;2024-02-15T11:14:34;101384.97;;;13.88;100.00
61119;BME280;51448;51.660;5.824;2024-02-15T11:17:02;101378.28;;;13.89;100.00
61119;BME280;51448;51.660;5.824;2024-02-15T11:22:10;101385.13;;;13.91;100.00
61119;BME280;51448;51.660;5.824;2024-02-15T11:24:49;101380.41;;;13.92;100.00
61119;BME280;51448;51.660;5.824;2024-02-15T11:27:27;101371.75;;;13.93;100.00
61119;BME280;51448;51.660;5.824;2024-02-15T11:29:57;101369.44;;;13.95;100.00
61119;BME280;51448;51.660;5.824;2024-02-15T11:32:43;101368.00;;;13.98;100.00
61119;BME280;51448;51.660;5.824;2024-02-15T11:35:13;101368.81;;;13.99;100.00
61119;BME280;51448;51.660;5.824;2024-02-15T11:42:55;101370.22;;;14.13;100.00
61119;BME280;51448;51.660;5.824;2024-02-15T11:45:27;101363.69;;;14.18;100.00
61119;BME280;51448;51.660;5.824;2024-02-15T11:48:08;101368.25;;;14.23;100.00
61119;BME280;51448;51.660;5.824;2024-02-15T11:50:39;101360.91;;;14.27;100.00
61119;BME280;51448;51.660;5.824;2024-02-15T11:53:08;101350.75;;;14.31;100.00
61119;BME280;51448;51.660;5.824;2024-02-15T11:55:39;101350.44;;;14.32;100.00
61119;BME280;51448;51.660;5.824;2024-02-15T11:58:09;101353.34;;;14.36;100.00
61119;BME280;51448;51.660;5.824;2024-02-15T12:00:39;101352.69;;;14.39;100.00
61119;BME280;51448;51.660;5.824;2024-02-15T12:03:26;101350.41;;;14.41;100.00
61119;BME280;51448;51.660;5.824;2024-02-15T12:06:30;101352.97;;;14.46;100.00
61119;BME280;51448;51.660;5.824;2024-02-15T12:09:18;101344.00;;;14.49;100.00
61119;BME280;51448;51.660;5.824;2024-02-15T12:12:06;101337.47;;;14.54;100.00
61119;BME280;51448;51.660;5.824;2024-02-15T12:15:00;101338.56;;;14.61;100.00
61119;BME280;51448;51.660;5.824;2024-02-15T12:17:47;101331.34;;;14.69;100.00
61119;BME280;51448;51.660;5.824;2024-02-15T12:20:34;101330.81;;;14.76;100.00
61119;BME280;51448;51.660;5.824;2024-02-15T12:23:02;101323.09;;;14.81;100.00
61119;BME280;51448;51.660;5.824;2024-02-15T12:25:30;101317.00;;;14.88;100.00
61119;BME280;51448;51.660;5.824;2024-02-15T12:28:01;101309.63;;;14.92;100.00
61119;BME280;51448;51.660;5.824;2024-02-15T12:30:33;101302.72;;;14.98;100.00
61119;BME280;51448;51.660;5.824;2024-02-15T12:33:11;101304.94;;;15.05;100.00
61119;BME280;51448;51.660;5.824;2024-02-15T12:35:41;101292.81;;;15.09;100.00
61119;BME280;51448;51.660;5.824;2024-02-15T12:38:12;101292.63;;;15.14;100.00
61119;BME280;51448;51.660;5.824;2024-02-15T12:40:43;101292.06;;;15.21;100.00
61119;BME280;51448;51.660;5.824;2024-02-15T12:43:15;101284.81;;;15.29;100.00
61119;BME280;51448;51.660;5.824;2024-02-15T12:45:42;101285.88;;;15.36;100.00
61119;BME280;51448;51.660;5.824;2024-02-15T12:48:10;101286.50;;;15.42;100.00
61119;BME280;51448;51.660;5.824;2024-02-15T12:50:38;101277.13;;;15.46;100.00
61119;BME280;51448;51.660;5.824;2024-02-15T12:53:07;101274.94;;;15.52;100.00
61119;BME280;51448;51.660;5.824;2024-02-15T12:55:36;101274.28;;;15.55;100.00
61119;BME280;51448;51.660;5.824;2024-02-15T12:58:07;101271.13;;;15.57;100.00
61119;BME280;51448;51.660;5.824;2024-02-15T13:00:42;101270.44;;;15.60;100.00
61119;BME280;51448;51.660;5.824;2024-02-15T13:03:11;101267.81;;;15.63;100.00
61119;BME280;51448;51.660;5.824;2024-02-15T13:05:41;101258.09;;;15.69;100.00
61119;BME280;51448;51.660;5.824;2024-02-15T13:08:09;101259.84;;;15.74;100.00
61119;BME280;51448;51.660;5.824;2024-02-15T13:10:44;101256.03;;;15.78;100.00